createdAt,value
2022-11-27T09:56:43.689Z,39.78
2022-11-27T09:59:47.486Z,38.47
2022-11-27T10:02:24.716Z,39.79
2022-11-27T10:05:29.502Z,40.12
2022-11-27T10:08:33.481Z,41.75
2022-11-27T10:11:38.052Z,44.74
2022-11-27T10:15:07.456Z,46.88
2022-11-27T10:17:52.476Z,49.06
2022-11-27T10:20:51.603Z,51.63
2022-11-27T10:24:05.062Z,53.82
2022-11-27T10:26:57.498Z,55.69
2022-11-27T10:29:52.348Z,56.46
2022-11-27T10:32:57.905Z,57.60
2022-11-27T10:35:39.813Z,59.46
2022-11-27T10:38:27.487Z,60.52
2022-11-27T10:41:47.486Z,61.59
2022-11-27T10:44:29.482Z,62.59
2022-11-27T10:47:15.656Z,63.06
2022-11-27T10:49:56.504Z,63.27
2022-11-27T10:52:37.624Z,62.76
2022-11-27T10:55:25.473Z,62.10
2022-11-27T10:58:15.645Z,62.43
2022-11-27T11:01:10.546Z,63.47
2022-11-27T11:03:59.510Z,63.79
2022-11-27T11:06:39.396Z,64.77
2022-11-27T11:09:31.498Z,65.17
2022-11-27T11:12:34.487Z,65.95
2022-11-27T11:15:22.472Z,66.41
2022-11-27T11:17:56.631Z,66.65
2022-11-27T11:20:44.478Z,65.78
2022-11-27T11:23:35.622Z,65.67
2022-11-27T11:26:43.630Z,65.78
2022-11-27T11:29:44.494Z,67.29
2022-11-27T11:32:29.481Z,66.97
2022-11-27T11:35:38.506Z,67.33
2022-11-27T11:38:20.613Z,67.27
2022-11-27T11:41:14.464Z,67.71
2022-11-27T11:44:01.964Z,67.73
2022-11-27T11:47:00.473Z,67.63
2022-11-27T11:49:36.626Z,67.49
2022-11-27T11:52:36.463Z,67.23
2022-11-27T11:55:24.777Z,67.40
2022-11-27T11:58:55.664Z,67.07
2022-11-27T12:17:15.778Z,53.90
2022-11-27T12:20:19.845Z,52.85
2022-11-27T12:23:37.132Z,52.63
2022-11-27T12:26:30.849Z,53.14
2022-11-27T12:29:38.142Z,53.96
2022-11-27T12:32:43.856Z,54.70
2022-11-27T12:35:38.052Z,55.16
2022-11-27T12:38:46.229Z,55.83
2022-11-27T12:41:44.979Z,56.67
2022-11-27T12:45:10.843Z,57.32
2022-11-27T12:48:00.570Z,57.79
2022-11-27T12:50:57.829Z,58.84
2022-11-27T12:53:53.417Z,59.30
2022-11-27T12:57:02.661Z,59.88
2022-11-27T12:59:58.245Z,60.26
2022-11-27T13:02:56.931Z,60.52
2022-11-27T13:05:43.903Z,60.52
2022-11-27T13:08:47.152Z,61.05
2022-11-27T13:11:33.905Z,61.26
2022-11-27T13:14:30.846Z,61.58
2022-11-27T13:17:27.848Z,61.93
2022-11-27T13:20:24.840Z,62.10
2022-11-27T13:23:00.010Z,62.26
2022-11-27T13:25:57.831Z,62.34
2022-11-27T13:29:05.113Z,62.47
2022-11-27T13:31:54.888Z,62.91
2022-11-27T13:34:32.959Z,63.18
2022-11-27T13:37:42.863Z,63.29
2022-11-27T13:40:53.967Z,63.58
2022-11-27T13:43:52.384Z,63.90
2022-11-27T13:46:39.851Z,63.84
2022-11-27T13:49:33.066Z,63.94
2022-11-27T13:52:34.040Z,64.13
2022-11-27T13:55:32.213Z,64.68
2022-11-27T13:58:08.476Z,64.94
2022-11-27T14:00:57.930Z,65.09
2022-11-27T14:03:36.777Z,65.34
2022-11-27T14:06:36.828Z,65.45
2022-11-27T14:09:20.883Z,65.69
2022-11-27T14:12:10.163Z,66.21
2022-11-27T14:14:45.220Z,66.57
2022-11-27T14:17:45.043Z,67.04
2022-11-27T14:20:24.053Z,67.18
2022-11-27T14:23:13.511Z,67.35
2022-11-27T14:25:55.789Z,67.53
2022-11-27T14:28:52.038Z,67.68
2022-11-27T14:31:43.012Z,67.80
2022-11-27T14:34:47.258Z,67.85
2022-11-27T14:37:42.818Z,68.08
2022-11-27T14:40:35.136Z,68.26
2022-11-27T14:43:36.051Z,68.47
2022-11-27T14:46:27.829Z,68.75
2022-11-27T14:49:02.967Z,69.20
2022-11-27T14:51:50.817Z,69.62
2022-11-27T14:54:33.013Z,70.12
2022-11-27T14:57:18.813Z,70.02
2022-11-27T15:00:24.486Z,69.55
2022-11-27T15:03:16.989Z,69.27
2022-11-27T15:06:03.997Z,69.26
2022-11-27T15:08:44.815Z,69.38
2022-11-27T15:11:54.083Z,69.76
2022-11-27T15:14:26.974Z,69.71
2022-11-27T15:17:30.826Z,69.92
2022-11-27T15:20:22.826Z,69.97
2022-11-27T15:23:05.962Z,70.12
2022-11-27T15:25:59.801Z,70.12
2022-11-27T15:28:46.968Z,70.06
2022-11-27T15:31:39.864Z,69.98
2022-11-27T15:34:20.060Z,70.12
2022-11-27T15:37:13.174Z,70.48
2022-11-27T15:40:22.962Z,70.74
2022-11-27T15:43:21.849Z,70.94
2022-11-27T15:45:57.015Z,71.08
2022-11-27T15:48:44.807Z,71.39
2022-11-27T15:51:18.988Z,71.47
2022-11-27T15:54:06.822Z,71.44
2022-11-27T15:56:41.995Z,71.45
2022-11-27T15:59:31.864Z,71.41
2022-11-27T16:02:18.108Z,71.42
2022-11-27T16:05:12.818Z,71.38
2022-11-27T16:08:00.873Z,71.46
2022-11-27T16:10:42.206Z,71.59
2022-11-27T16:13:24.012Z,71.54
2022-11-27T16:16:17.717Z,71.60
2022-11-27T16:19:04.340Z,71.58
2022-11-27T16:21:46.004Z,71.65
2022-11-27T16:24:28.010Z,71.69
2022-11-27T16:27:12.431Z,71.52
2022-11-27T16:29:58.765Z,71.47
2022-11-27T16:32:47.839Z,71.42
2022-11-27T16:35:25.376Z,71.49
2022-11-27T16:38:12.956Z,71.59
2022-11-27T16:40:49.538Z,71.43
2022-11-27T16:43:39.766Z,71.44
2022-11-27T16:46:20.787Z,71.57
2022-11-27T16:49:12.828Z,71.61
2022-11-27T16:51:48.349Z,71.67
2022-11-27T16:54:39.654Z,71.69
2022-11-27T16:57:15.145Z,71.57
2022-11-27T17:00:03.898Z,71.60
2022-11-27T17:02:38.349Z,71.47
2022-11-27T17:05:26.833Z,71.44
2022-11-27T17:08:03.840Z,71.43
2022-11-27T17:10:51.820Z,71.49
2022-11-27T17:13:33.681Z,71.92
2022-11-27T17:16:29.872Z,72.08
2022-11-27T17:19:21.810Z,72.29
2022-11-27T17:22:03.800Z,72.35
2022-11-27T17:25:04.849Z,72.32
2022-11-27T17:27:56.885Z,72.20
2022-11-27T17:30:35.156Z,72.20
2022-11-27T17:33:28.981Z,72.13
2022-11-27T17:36:04.250Z,72.14
2022-11-27T17:38:52.772Z,72.01
2022-11-27T17:41:35.708Z,71.95
2022-11-27T17:44:31.126Z,72.08
2022-11-27T17:47:19.797Z,72.00
2022-11-27T17:49:55.336Z,72.24
2022-11-27T17:52:53.403Z,72.17
2022-11-27T17:55:28.018Z,72.08
2022-11-27T17:58:15.807Z,72.15
2022-11-27T18:00:50.997Z,72.09
2022-11-27T18:03:40.792Z,72.07
2022-11-27T18:06:22.799Z,72.45
2022-11-27T18:09:14.134Z,73.01
2022-11-27T18:11:49.011Z,73.23
2022-11-27T18:14:36.788Z,73.32
2022-11-27T18:17:14.826Z,73.36
2022-11-27T18:20:03.795Z,73.42
2022-11-27T18:22:39.962Z,73.36
2022-11-27T18:25:28.802Z,73.32
2022-11-27T18:28:10.778Z,73.16
2022-11-27T18:31:05.809Z,73.21
2022-11-27T18:33:53.932Z,73.35
2022-11-27T18:36:36.189Z,73.51
2022-11-27T18:39:18.962Z,73.61
2022-11-27T18:42:07.944Z,73.53
2022-11-27T18:44:45.085Z,73.36
2022-11-27T18:47:36.216Z,73.26
2022-11-27T18:50:17.799Z,73.23
2022-11-27T18:53:01.626Z,73.10
2022-11-27T18:55:46.838Z,73.06
2022-11-27T18:58:35.223Z,72.89
2022-11-27T19:01:22.845Z,72.80
2022-11-27T19:04:15.824Z,72.67
2022-11-27T19:06:59.824Z,72.87
2022-11-27T19:09:55.320Z,72.91
2022-11-27T19:12:42.015Z,73.02
2022-11-27T19:15:28.094Z,73.04
2022-11-27T19:18:14.081Z,73.12
2022-11-27T19:21:00.665Z,73.03
2022-11-27T19:23:44.067Z,72.66
2022-11-27T19:26:41.025Z,72.58
2022-11-27T19:29:23.244Z,72.50
2022-11-27T19:32:15.902Z,72.47
2022-11-27T19:35:03.063Z,72.58
2022-11-27T19:37:55.780Z,72.69
2022-11-27T19:40:31.993Z,72.79
2022-11-27T19:43:20.889Z,72.80
2022-11-27T19:45:55.464Z,72.67
2022-11-27T19:48:45.046Z,72.39
2022-11-27T19:51:28.794Z,72.26
2022-11-27T19:54:13.302Z,72.66
2022-11-27T19:56:55.789Z,72.77
2022-11-27T19:59:39.068Z,72.74
2022-11-27T20:02:21.802Z,72.93
2022-11-27T20:05:03.172Z,72.84
2022-11-27T20:07:46.041Z,72.78
2022-11-27T20:10:27.981Z,72.59
2022-11-27T20:13:14.079Z,72.58
2022-11-27T20:16:02.997Z,72.55
2022-11-27T20:18:56.059Z,72.71
2022-11-27T20:21:40.586Z,72.83
2022-11-27T20:24:23.756Z,72.94
2022-11-27T20:27:07.198Z,73.01
2022-11-27T20:29:49.909Z,73.03
2022-11-27T20:32:35.710Z,73.00
2022-11-27T20:35:17.774Z,73.11
2022-11-27T20:37:59.752Z,72.93
2022-11-27T20:40:34.918Z,72.98
2022-11-27T20:43:23.968Z,73.07
2022-11-27T20:46:08.439Z,73.16
2022-11-27T20:49:05.993Z,73.26
2022-11-27T20:51:58.209Z,73.35
2022-11-27T20:54:38.983Z,73.39
2022-11-27T20:57:28.033Z,73.35
2022-11-27T21:00:11.962Z,73.07
2022-11-27T21:03:07.756Z,73.01
2022-11-27T21:05:57.780Z,73.20
2022-11-27T21:08:39.635Z,73.26
2022-11-27T21:11:31.988Z,73.30
2022-11-27T21:14:23.790Z,73.21
2022-11-27T21:17:14.977Z,73.12
2022-11-27T21:20:02.911Z,73.00
2022-11-27T21:22:43.259Z,72.81
2022-11-27T21:25:31.778Z,72.79
2022-11-27T21:28:11.209Z,72.80
2022-11-27T21:31:01.772Z,72.89
2022-11-27T21:33:43.791Z,73.02
2022-11-27T21:36:40.854Z,72.82
2022-11-27T21:39:28.842Z,72.82
2022-11-27T21:42:04.174Z,72.76
2022-11-27T21:44:51.953Z,72.72
2022-11-27T21:47:27.884Z,72.71
2022-11-27T21:50:15.738Z,72.76
2022-11-27T21:52:56.759Z,72.67
2022-11-27T21:55:58.749Z,72.64
2022-11-27T21:58:50.029Z,72.73
2022-11-27T22:01:28.971Z,72.86
2022-11-27T22:04:16.992Z,72.94
2022-11-27T22:06:54.312Z,72.95
2022-11-27T22:09:41.734Z,72.83
2022-11-27T22:12:23.566Z,72.80
2022-11-27T22:15:11.733Z,72.75
2022-11-27T22:17:48.849Z,72.89
2022-11-27T22:20:38.944Z,72.99
2022-11-27T22:23:15.892Z,72.98
2022-11-27T22:26:08.766Z,72.80
2022-11-27T22:28:47.564Z,72.74
2022-11-27T22:31:40.749Z,72.84
2022-11-27T22:34:22.972Z,73.16
2022-11-27T22:37:21.297Z,73.11
2022-11-27T22:40:12.742Z,72.93
2022-11-27T22:42:47.913Z,73.02
2022-11-27T22:45:36.950Z,73.39
2022-11-27T22:48:27.499Z,73.66
2022-11-27T22:54:39.857Z,73.58
2022-11-27T22:57:30.978Z,73.48
2022-11-27T23:00:16.284Z,73.60
2022-11-27T23:03:01.918Z,73.69
2022-11-27T23:05:42.864Z,73.97
2022-11-27T23:08:25.721Z,74.10
2022-11-27T23:11:06.884Z,74.24
2022-11-27T23:13:49.868Z,74.20
2022-11-27T23:16:37.769Z,74.27
2022-11-27T23:19:25.931Z,74.41
2022-11-27T23:22:08.728Z,74.19
2022-11-27T23:25:03.724Z,74.39
2022-11-27T23:27:54.726Z,74.52
2022-11-27T23:30:37.529Z,74.58
2022-11-27T23:33:34.197Z,74.67
2022-11-27T23:36:22.121Z,74.71
2022-11-27T23:38:57.109Z,74.59
2022-11-27T23:41:46.737Z,74.48
2022-11-27T23:44:21.897Z,74.39
2022-11-27T23:47:09.716Z,74.37
2022-11-27T23:49:44.521Z,74.26
2022-11-27T23:52:34.664Z,74.18
2022-11-27T23:55:09.868Z,74.12
2022-11-27T23:57:59.748Z,74.21
